Time;durP1;ratioP1;P1;durP2;ratioP2;P2;SDS_P1;SDS_P2;PMS_P1;PMS_P2;Temp;Humidity;BMP_temperature;BMP_pressure;BME280_temperature;BME280_humidity;BME280_pressure;Samples;Min_cycle;Max_cycle;Signal;HPM_P1;HPM_P2
2023/12/31 00:01:33;;;;;;;252.13;78.53;;;;;;;;;;4166292;28;20075;-63
2023/12/31 00:03:36;;;;;;;192.20;74.65;;;;;;;;;;4153222;28;20509;-63
2023/12/31 00:05:45;;;;;;;178.27;75.35;;;;;;;;;;4178032;28;20050;-63
2023/12/31 00:07:47;;;;;;;296.83;82.97;;;;;;;;;;4171136;28;20120;-63
2023/12/31 00:09:48;;;;;;;156.00;70.53;;;;;;;;;;4181880;28;20090;-63
2023/12/31 00:11:50;;;;;;;305.63;82.77;;;;;;;;;;4178296;28;20401;-63
2023/12/31 00:13:52;;;;;;;220.88;77.20;;;;;;;;;;4165100;28;20072;-63
2023/12/31 00:15:53;;;;;;;377.13;83.43;;;;;;;;;;4165437;28;20049;-63
2023/12/31 00:17:55;;;;;;;246.00;78.57;;;;;;;;;;4167367;28;20168;-63
2023/12/31 00:19:56;;;;;;;193.40;82.17;;;;;;;;;;4178033;28;20298;-64
2023/12/31 00:21:58;;;;;;;277.00;78.30;;;;;;;;;;4167703;28;20083;-63
2023/12/31 00:24:00;;;;;;;234.63;70.73;;;;;;;;;;4180640;28;20087;-63
2023/12/31 00:26:01;;;;;;;282.52;74.43;;;;;;;;;;4166029;28;20390;-63
2023/12/31 00:28:03;;;;;;;320.23;82.87;;;;;;;;;;4179513;28;20044;-63
2023/12/31 00:30:05;;;;;;;152.17;73.97;;;;;;;;;;4168506;28;20386;-63
2023/12/31 00:32:06;;;;;;;77.93;64.43;;;;;;;;;;4176828;28;20045;-63
2023/12/31 00:34:10;;;;;;;131.65;70.68;;;;;;;;;;4153350;28;20464;-63
2023/12/31 00:36:12;;;;;;;125.80;71.57;;;;;;;;;;4174334;28;20073;-63
2023/12/31 00:38:13;;;;;;;117.90;73.15;;;;;;;;;;4165930;28;20119;-63
2023/12/31 00:40:15;;;;;;;108.32;71.07;;;;;;;;;;4171546;28;20041;-63
2023/12/31 00:42:16;;;;;;;172.97;74.33;;;;;;;;;;4176115;28;20060;-63
2023/12/31 00:44:18;;;;;;;79.00;67.70;;;;;;;;;;4169183;28;20319;-63
2023/12/31 00:46:20;;;;;;;98.25;69.72;;;;;;;;;;4178345;28;20047;-63
2023/12/31 00:48:21;;;;;;;111.80;66.60;;;;;;;;;;4166685;28;20129;-63
2023/12/31 00:50:23;;;;;;;103.05;69.18;;;;;;;;;;4180271;28;20405;-63
2023/12/31 00:52:25;;;;;;;86.85;66.63;;;;;;;;;;4170963;28;20132;-63
2023/12/31 00:54:26;;;;;;;100.73;67.47;;;;;;;;;;4178403;28;20105;-63
2023/12/31 00:56:28;;;;;;;104.28;73.55;;;;;;;;;;4168829;28;20451;-63
2023/12/31 00:58:30;;;;;;;104.80;73.77;;;;;;;;;;4176341;28;20048;-63
2023/12/31 01:00:31;;;;;;;97.20;73.90;;;;;;;;;;4171056;28;20041;-63
2023/12/31 01:02:33;;;;;;;92.03;72.13;;;;;;;;;;4155172;28;20304;-63
2023/12/31 01:04:35;;;;;;;204.02;76.80;;;;;;;;;;4157361;28;20076;-63
2023/12/31 01:06:37;;;;;;;259.85;76.35;;;;;;;;;;4154403;28;20052;-63
2023/12/31 01:08:38;;;;;;;102.22;70.35;;;;;;;;;;4159367;28;20092;-63
2023/12/31 01:10:40;;;;;;;161.20;73.97;;;;;;;;;;4156053;28;20517;-63
2023/12/31 01:12:41;;;;;;;263.08;72.35;;;;;;;;;;4148188;28;20549;-63
2023/12/31 01:14:44;;;;;;;164.23;68.88;;;;;;;;;;4148796;28;20038;-63
2023/12/31 01:16:46;;;;;;;123.95;71.03;;;;;;;;;;4133876;28;20438;-63
2023/12/31 01:18:47;;;;;;;78.63;66.30;;;;;;;;;;4162212;28;20045;-63
2023/12/31 01:20:49;;;;;;;87.50;63.17;;;;;;;;;;4151347;28;20041;-63
2023/12/31 01:22:51;;;;;;;106.93;64.97;;;;;;;;;;4159857;28;20393;-63
2023/12/31 01:24:52;;;;;;;104.97;67.17;;;;;;;;;;4158575;28;20073;-63
2023/12/31 01:26:54;;;;;;;217.83;73.07;;;;;;;;;;4155139;28;20156;-63
2023/12/31 01:28:55;;;;;;;97.80;67.23;;;;;;;;;;4155958;28;20092;-63
2023/12/31 01:30:57;;;;;;;73.05;65.05;;;;;;;;;;4157596;28;20045;-63
2023/12/31 01:32:59;;;;;;;142.27;65.87;;;;;;;;;;4153512;28;20034;-63
2023/12/31 01:35:03;;;;;;;235.95;70.32;;;;;;;;;;4159787;28;20052;-63
2023/12/31 01:37:05;;;;;;;115.30;64.32;;;;;;;;;;4150749;28;20379;-63
2023/12/31 01:39:07;;;;;;;72.22;59.33;;;;;;;;;;4162616;28;20047;-63
2023/12/31 01:41:09;;;;;;;133.37;65.67;;;;;;;;;;4148708;28;20081;-63
2023/12/31 01:43:10;;;;;;;99.78;63.63;;;;;;;;;;4162147;28;20472;-63
2023/12/31 01:45:12;;;;;;;84.57;65.70;;;;;;;;;;4150507;28;20047;-63
2023/12/31 01:47:15;;;;;;;153.85;63.45;;;;;;;;;;4159759;28;20474;-63
2023/12/31 01:49:17;;;;;;;115.57;61.67;;;;;;;;;;4153359;28;20041;-63
2023/12/31 01:51:19;;;;;;;;;;;;;;;;;;4157454;28;20045;-63
2023/12/31 01:53:20;;;;;;;110.97;67.28;;;;;;;;;;4160973;28;20296;-63
2023/12/31 01:55:22;;;;;;;89.47;68.03;;;;;;;;;;4154574;28;20042;-63
2023/12/31 01:57:27;;;;;;;84.03;66.10;;;;;;;;;;4158021;28;20033;-63
2023/12/31 01:59:28;;;;;;;92.97;72.03;;;;;;;;;;4151271;28;20034;-63
2023/12/31 02:01:30;;;;;;;120.55;74.65;;;;;;;;;;4160985;28;20041;-61
2023/12/31 02:03:33;;;;;;;131.65;68.53;;;;;;;;;;4146873;28;20066;-63
2023/12/31 02:05:36;;;;;;;145.05;74.32;;;;;;;;;;4162811;28;20049;-63
2023/12/31 02:07:38;;;;;;;151.93;73.05;;;;;;;;;;4147595;28;20042;-63
2023/12/31 02:09:40;;;;;;;235.02;71.50;;;;;;;;;;4160984;28;20489;-63
2023/12/31 02:11:41;;;;;;;149.57;69.38;;;;;;;;;;4159306;28;20065;-63
2023/12/31 02:13:43;;;;;;;106.90;69.53;;;;;;;;;;4153292;28;20041;-63
2023/12/31 02:15:44;;;;;;;77.75;68.13;;;;;;;;;;4158416;28;20342;-63
2023/12/31 02:17:46;;;;;;;99.30;65.82;;;;;;;;;;4162306;28;20079;-63
2023/12/31 02:19:48;;;;;;;98.17;70.00;;;;;;;;;;4154239;28;20494;-63
2023/12/31 02:21:50;;;;;;;90.47;70.53;;;;;;;;;;4157474;28;20288;-63
2023/12/31 02:23:52;;;;;;;87.27;68.70;;;;;;;;;;4159372;28;20132;-63
2023/12/31 02:26:03;;;;;;;94.60;70.10;;;;;;;;;;4150837;28;20753;-63
2023/12/31 02:28:07;;;;;;;83.93;68.47;;;;;;;;;;4162628;28;20033;-63
2023/12/31 02:30:10;;;;;;;98.88;68.50;;;;;;;;;;4149267;28;20124;-63
2023/12/31 02:32:11;;;;;;;72.85;63.05;;;;;;;;;;4160555;28;20045;-63
2023/12/31 02:34:13;;;;;;;72.80;63.03;;;;;;;;;;4151737;28;20037;-63
2023/12/31 02:36:14;;;;;;;74.50;61.87;;;;;;;;;;4158281;28;20096;-63
2023/12/31 02:38:16;;;;;;;73.27;63.30;;;;;;;;;;4154457;28;20041;-63
2023/12/31 02:40:18;;;;;;;89.13;65.13;;;;;;;;;;4155507;28;20046;-63
2023/12/31 02:42:20;;;;;;;75.05;61.75;;;;;;;;;;4156556;28;20284;-63
2023/12/31 02:44:22;;;;;;;70.53;63.00;;;;;;;;;;4153190;28;20041;-63
2023/12/31 02:46:23;;;;;;;69.15;61.58;;;;;;;;;;4158881;28;20567;-63
2023/12/31 02:48:25;;;;;;;111.10;62.17;;;;;;;;;;4150673;28;20048;-63
2023/12/31 02:50:27;;;;;;;71.53;62.22;;;;;;;;;;4161256;28;20052;-63
2023/12/31 02:52:28;;;;;;;84.77;63.47;;;;;;;;;;4153267;28;20034;-63
2023/12/31 02:54:30;;;;;;;83.93;62.20;;;;;;;;;;4162454;28;20033;-63
2023/12/31 02:56:38;;;;;;;107.13;64.78;;;;;;;;;;4151212;28;20046;-63
2023/12/31 02:58:39;;;;;;;124.72;66.25;;;;;;;;;;4160920;28;20053;-63
2023/12/31 03:00:41;;;;;;;136.13;71.73;;;;;;;;;;4155715;28;20084;-63
2023/12/31 03:02:43;;;;;;;85.15;65.28;;;;;;;;;;4166806;28;20049;-63
2023/12/31 03:04:44;;;;;;;77.37;63.70;;;;;;;;;;4166522;28;20049;-63
2023/12/31 03:06:51;;;;;;;139.50;68.20;;;;;;;;;;4157993;28;20053;-64
2023/12/31 03:08:55;;;;;;;261.90;79.78;;;;;;;;;;4162204;28;20829;-63
2023/12/31 03:10:57;;;;;;;91.90;69.68;;;;;;;;;;4165171;28;20041;-63
2023/12/31 03:12:58;;;;;;;128.43;68.63;;;;;;;;;;4168638;28;20041;-63
2023/12/31 03:15:00;;;;;;;206.73;70.50;;;;;;;;;;4182051;28;20041;-63
2023/12/31 03:17:03;;;;;;;134.80;74.13;;;;;;;;;;4181800;28;20047;-63
2023/12/31 03:19:04;;;;;;;94.28;67.68;;;;;;;;;;4168824;28;20291;-64
2023/12/31 03:21:12;;;;;;;133.55;68.03;;;;;;;;;;4179003;28;20044;-63
2023/12/31 03:23:14;;;;;;;144.68;72.07;;;;;;;;;;4171886;28;20057;-63
2023/12/31 03:25:16;;;;;;;165.88;74.40;;;;;;;;;;4175462;28;20049;-63
2023/12/31 03:27:18;;;;;;;239.32;67.35;;;;;;;;;;4174572;28;20514;-63
2023/12/31 03:29:19;;;;;;;240.27;73.33;;;;;;;;;;4173013;28;20375;-63
2023/12/31 03:31:21;;;;;;;201.20;68.65;;;;;;;;;;4176972;28;20045;-63
2023/12/31 03:33:23;;;;;;;140.10;64.75;;;;;;;;;;4153267;28;20038;-63
2023/12/31 03:35:24;;;;;;;141.82;67.85;;;;;;;;;;4179240;28;20041;-63
2023/12/31 03:37:27;;;;;;;332.13;76.07;;;;;;;;;;4168378;28;20397;-64
2023/12/31 03:39:28;;;;;;;379.50;81.47;;;;;;;;;;4181366;28;20428;-63
2023/12/31 03:41:30;;;;;;;258.15;71.82;;;;;;;;;;4167318;28;20049;-63
2023/12/31 03:43:32;;;;;;;328.70;75.87;;;;;;;;;;4179910;28;20163;-63
2023/12/31 03:45:33;;;;;;;278.27;74.50;;;;;;;;;;4169794;28;20041;-63
2023/12/31 03:47:35;;;;;;;498.63;82.45;;;;;;;;;;4177739;28;20068;-63
2023/12/31 03:49:37;;;;;;;340.48;77.07;;;;;;;;;;4172202;28;20045;-63
2023/12/31 03:51:39;;;;;;;325.38;75.03;;;;;;;;;;4174527;28;20053;-63
2023/12/31 03:53:41;;;;;;;391.67;74.87;;;;;;;;;;4181828;28;20126;-63
2023/12/31 03:55:42;;;;;;;231.50;70.70;;;;;;;;;;4172000;28;20338;-63
2023/12/31 03:57:44;;;;;;;227.93;68.73;;;;;;;;;;4177173;28;20037;-63
2023/12/31 03:59:46;;;;;;;294.52;75.25;;;;;;;;;;4169338;28;20402;-63
2023/12/31 04:01:49;;;;;;;154.60;73.03;;;;;;;;;;4164976;28;20042;-63
2023/12/31 04:03:51;;;;;;;149.48;72.53;;;;;;;;;;4181121;28;20103;-63
2023/12/31 04:05:53;;;;;;;288.70;73.00;;;;;;;;;;4151258;28;20133;-63
2023/12/31 04:07:55;;;;;;;182.63;70.47;;;;;;;;;;4179154;28;20055;-63
2023/12/31 04:09:56;;;;;;;134.38;71.80;;;;;;;;;;4159243;28;20045;-63
2023/12/31 04:11:58;;;;;;;128.07;69.47;;;;;;;;;;4177224;28;20042;-63
2023/12/31 04:14:00;;;;;;;172.20;75.77;;;;;;;;;;4171432;28;20582;-63
2023/12/31 04:16:01;;;;;;;216.27;71.60;;;;;;;;;;4178697;28;20060;-63
2023/12/31 04:18:03;;;;;;;198.10;72.85;;;;;;;;;;4173512;28;20057;-63
2023/12/31 04:20:05;;;;;;;215.40;72.32;;;;;;;;;;4157349;28;20446;-63
2023/12/31 04:22:07;;;;;;;165.75;73.35;;;;;;;;;;4153039;28;20576;-63
2023/12/31 04:24:09;;;;;;;80.00;63.28;;;;;;;;;;4177529;28;20049;-63
2023/12/31 04:26:11;;;;;;;90.22;68.50;;;;;;;;;;4168102;28;20041;-63
2023/12/31 04:28:13;;;;;;;238.15;75.93;;;;;;;;;;4180185;28;20103;-62
2023/12/31 04:30:14;;;;;;;228.23;72.37;;;;;;;;;;4166250;28;20041;-62
2023/12/31 04:32:16;;;;;;;128.83;72.23;;;;;;;;;;4179926;28;20786;-62
2023/12/31 04:34:17;;;;;;;98.05;68.88;;;;;;;;;;4168062;28;20275;-62
2023/12/31 04:36:19;;;;;;;204.77;72.33;;;;;;;;;;4177519;28;20413;-62
2023/12/31 04:38:21;;;;;;;122.72;66.53;;;;;;;;;;4170489;28;20069;-62
2023/12/31 04:40:22;;;;;;;84.13;67.88;;;;;;;;;;4174956;28;20029;-63
2023/12/31 04:42:24;;;;;;;195.35;77.20;;;;;;;;;;4172812;28;20067;-62
2023/12/31 04:44:25;;;;;;;270.23;75.57;;;;;;;;;;4172499;28;20049;-62
2023/12/31 04:46:27;;;;;;;88.57;65.70;;;;;;;;;;4175081;28;20037;-62
2023/12/31 04:48:29;;;;;;;124.25;69.03;;;;;;;;;;4170003;28;20041;-62
2023/12/31 04:50:30;;;;;;;154.13;69.87;;;;;;;;;;4177480;28;20040;-62
2023/12/31 04:52:32;;;;;;;145.20;67.47;;;;;;;;;;4174504;28;20037;-62
2023/12/31 04:54:34;;;;;;;132.15;71.60;;;;;;;;;;4181383;28;20044;-62
2023/12/31 04:56:37;;;;;;;125.80;68.13;;;;;;;;;;4164627;28;20041;-62
2023/12/31 04:58:39;;;;;;;139.52;67.50;;;;;;;;;;4166843;28;20568;-62
2023/12/31 05:00:41;;;;;;;105.67;65.43;;;;;;;;;;4177582;28;20489;-62
2023/12/31 05:02:43;;;;;;;86.20;66.28;;;;;;;;;;4169437;28;20826;-62
2023/12/31 05:04:44;;;;;;;97.95;67.20;;;;;;;;;;4175110;28;20124;-62
2023/12/31 05:06:46;;;;;;;91.07;67.80;;;;;;;;;;4172083;28;20049;-62
2023/12/31 05:08:48;;;;;;;190.48;69.13;;;;;;;;;;4179200;28;20053;-62
2023/12/31 05:10:49;;;;;;;187.27;64.38;;;;;;;;;;4180998;28;20503;-62
2023/12/31 05:12:51;;;;;;;201.35;65.40;;;;;;;;;;4170235;28;20048;-62
2023/12/31 05:14:53;;;;;;;228.73;63.53;;;;;;;;;;4176816;28;20088;-62
2023/12/31 05:16:54;;;;;;;198.95;65.65;;;;;;;;;;4167519;28;20563;-62
2023/12/31 05:18:56;;;;;;;142.93;62.60;;;;;;;;;;4166052;28;20433;-62
2023/12/31 05:20:59;;;;;;;110.57;60.23;;;;;;;;;;4179934;28;20447;-62
2023/12/31 05:23:00;;;;;;;102.20;59.83;;;;;;;;;;4148829;28;20293;-61
2023/12/31 05:25:02;;;;;;;86.63;64.97;;;;;;;;;;4177791;28;20041;-62
2023/12/31 05:27:04;;;;;;;111.67;66.50;;;;;;;;;;4168770;28;20052;-62
2023/12/31 05:29:06;;;;;;;64.63;58.10;;;;;;;;;;4175491;28;20361;-62
2023/12/31 05:31:07;;;;;;;66.03;58.88;;;;;;;;;;4170926;28;20037;-61
2023/12/31 05:33:12;;;;;;;62.47;56.00;;;;;;;;;;4155075;28;20042;-62
2023/12/31 05:35:14;;;;;;;64.07;57.15;;;;;;;;;;4173747;28;20300;-62
2023/12/31 05:37:15;;;;;;;128.77;61.47;;;;;;;;;;4170089;28;20045;-62
2023/12/31 05:39:17;;;;;;;64.17;57.03;;;;;;;;;;4162100;28;20042;-63
2023/12/31 05:41:19;;;;;;;60.85;54.60;;;;;;;;;;4168912;28;20060;-63
2023/12/31 05:43:21;;;;;;;66.75;59.53;;;;;;;;;;4178693;28;20045;-63
2023/12/31 05:45:22;;;;;;;77.13;60.88;;;;;;;;;;4165094;28;20045;-63
2023/12/31 05:47:24;;;;;;;83.33;58.13;;;;;;;;;;4179067;28;20094;-63
2023/12/31 05:49:45;;;;;;;118.38;63.20;;;;;;;;;;4169322;28;20451;-63
2023/12/31 05:51:48;;;;;;;65.43;58.75;;;;;;;;;;4173796;28;20125;-63
2023/12/31 05:53:49;;;;;;;61.97;55.55;;;;;;;;;;4180723;28;20106;-63
2023/12/31 05:55:51;;;;;;;50.30;45.95;;;;;;;;;;4176122;28;20064;-63
2023/12/31 05:57:53;;;;;;;57.10;51.90;;;;;;;;;;4170072;28;20413;-63
2023/12/31 05:59:55;;;;;;;60.15;53.95;;;;;;;;;;4157916;28;20541;-63
2023/12/31 06:01:56;;;;;;;57.27;51.63;;;;;;;;;;4166802;28;20127;-63
2023/12/31 06:03:58;;;;;;;63.73;57.30;;;;;;;;;;4178301;28;20048;-63
2023/12/31 06:06:00;;;;;;;62.33;55.78;;;;;;;;;;4165041;28;20053;-63
2023/12/31 06:08:01;;;;;;;57.33;51.97;;;;;;;;;;4164781;28;20045;-63
2023/12/31 06:10:03;;;;;;;60.77;54.50;;;;;;;;;;4180377;28;20047;-63
2023/12/31 06:12:05;;;;;;;141.27;64.25;;;;;;;;;;4175193;28;20652;-63
2023/12/31 06:14:07;;;;;;;96.40;59.67;;;;;;;;;;4165296;28;20036;-63
2023/12/31 06:16:08;;;;;;;140.13;63.75;;;;;;;;;;4160152;28;20660;-63
2023/12/31 06:18:10;;;;;;;82.13;63.60;;;;;;;;;;4159694;28;20124;-63
2023/12/31 06:20:12;;;;;;;97.82;62.63;;;;;;;;;;4165325;28;20560;-63
2023/12/31 06:22:14;;;;;;;132.37;61.07;;;;;;;;;;4169258;28;20041;-63
2023/12/31 06:24:15;;;;;;;100.60;57.73;;;;;;;;;;4174849;28;20049;-64
2023/12/31 06:26:17;;;;;;;59.20;53.03;;;;;;;;;;4167875;28;20763;-63
2023/12/31 06:28:19;;;;;;;58.63;52.53;;;;;;;;;;4177040;28;20044;-63
2023/12/31 06:30:20;;;;;;;75.37;52.93;;;;;;;;;;4165299;28;20047;-63
2023/12/31 06:32:22;;;;;;;104.45;57.30;;;;;;;;;;4182711;28;20048;-63
2023/12/31 06:34:24;;;;;;;63.90;54.93;;;;;;;;;;4168626;28;20440;-63
2023/12/31 06:36:25;;;;;;;87.22;56.40;;;;;;;;;;4180601;28;20489;-63
2023/12/31 06:38:27;;;;;;;77.20;54.65;;;;;;;;;;4168401;28;20040;-63
2023/12/31 06:40:29;;;;;;;65.18;52.97;;;;;;;;;;4166250;28;20578;-63
2023/12/31 06:42:31;;;;;;;67.20;51.60;;;;;;;;;;4158624;28;20045;-63
2023/12/31 06:44:32;;;;;;;87.07;53.88;;;;;;;;;;4161836;28;20041;-63
2023/12/31 06:46:34;;;;;;;59.55;52.83;;;;;;;;;;4175836;28;20041;-63
2023/12/31 06:48:36;;;;;;;55.43;49.97;;;;;;;;;;4171790;28;20105;-62
2023/12/31 06:50:37;;;;;;;58.40;52.85;;;;;;;;;;4159018;28;20294;-62
2023/12/31 06:52:39;;;;;;;62.22;55.53;;;;;;;;;;4179426;28;20556;-62
2023/12/31 06:54:41;;;;;;;58.37;52.47;;;;;;;;;;4165753;28;20075;-62
2023/12/31 06:56:43;;;;;;;55.55;50.03;;;;;;;;;;4167813;28;20441;-62
2023/12/31 06:58:44;;;;;;;56.17;50.90;;;;;;;;;;4170551;28;20038;-61
2023/12/31 07:00:46;;;;;;;53.37;48.30;;;;;;;;;;4164983;28;20069;-62
2023/12/31 07:02:47;;;;;;;57.20;51.92;;;;;;;;;;4159955;28;20456;-63
2023/12/31 07:04:49;;;;;;;56.45;51.28;;;;;;;;;;4159940;28;20038;-62
2023/12/31 07:06:51;;;;;;;52.30;48.03;;;;;;;;;;4169614;28;20047;-62
2023/12/31 07:08:53;;;;;;;50.77;46.67;;;;;;;;;;4180927;28;20048;-62
2023/12/31 07:10:54;;;;;;;54.20;49.45;;;;;;;;;;4163886;28;20052;-62
2023/12/31 07:12:56;;;;;;;50.55;46.33;;;;;;;;;;4162859;28;20501;-62
2023/12/31 07:14:57;;;;;;;51.30;47.40;;;;;;;;;;4157658;28;20069;-62
2023/12/31 07:16:59;;;;;;;45.97;41.78;;;;;;;;;;4169087;28;20041;-62
2023/12/31 07:19:01;;;;;;;49.53;45.37;;;;;;;;;;4167902;28;20073;-62
2023/12/31 07:21:04;;;;;;;49.30;45.55;;;;;;;;;;4180869;28;20431;-62
2023/12/31 07:23:05;;;;;;;48.80;45.03;;;;;;;;;;4177836;28;20338;-62
2023/12/31 07:25:07;;;;;;;49.40;45.72;;;;;;;;;;4181093;28;20497;-62
2023/12/31 07:27:09;;;;;;;49.03;45.27;;;;;;;;;;4164359;28;20115;-62
2023/12/31 07:29:10;;;;;;;47.75;44.05;;;;;;;;;;4162674;28;20319;-63
2023/12/31 07:31:12;;;;;;;46.15;42.55;;;;;;;;;;4167769;28;20033;-62
2023/12/31 07:33:14;;;;;;;44.72;41.30;;;;;;;;;;4172937;28;20049;-63
2023/12/31 07:35:16;;;;;;;46.37;42.87;;;;;;;;;;4171225;28;20108;-63
2023/12/31 07:37:18;;;;;;;45.42;42.35;;;;;;;;;;4169167;28;20374;-62
2023/12/31 07:39:20;;;;;;;43.35;40.38;;;;;;;;;;4172234;28;20041;-63
2023/12/31 07:41:21;;;;;;;46.00;42.55;;;;;;;;;;4177138;28;20083;-62
2023/12/31 07:43:23;;;;;;;48.97;45.13;;;;;;;;;;4169578;28;20094;-62
2023/12/31 07:45:25;;;;;;;51.08;46.90;;;;;;;;;;4165965;28;20045;-62
2023/12/31 07:47:26;;;;;;;46.60;43.38;;;;;;;;;;4175068;28;20041;-62
2023/12/31 07:49:28;;;;;;;44.88;41.67;;;;;;;;;;4181519;28;20068;-63
2023/12/31 07:51:30;;;;;;;45.47;42.20;;;;;;;;;;4167863;28;20042;-62
2023/12/31 07:53:31;;;;;;;47.90;44.60;;;;;;;;;;4182284;28;20087;-62
2023/12/31 07:55:33;;;;;;;45.60;42.40;;;;;;;;;;4163379;28;20079;-62
2023/12/31 07:57:35;;;;;;;47.45;44.22;;;;;;;;;;4171771;28;20123;-63
2023/12/31 07:59:38;;;;;;;44.70;41.72;;;;;;;;;;4173854;28;20046;-63
2023/12/31 08:01:39;;;;;;;44.60;41.58;;;;;;;;;;4178152;28;20037;-64
2023/12/31 08:03:41;;;;;;;47.05;43.63;;;;;;;;;;4172434;28;20049;-63
2023/12/31 08:05:43;;;;;;;44.90;42.10;;;;;;;;;;4176530;28;20051;-63
2023/12/31 08:07:44;;;;;;;45.25;41.65;;;;;;;;;;4181520;28;20044;-63
2023/12/31 08:09:46;;;;;;;42.80;39.97;;;;;;;;;;4181710;28;20037;-63
2023/12/31 08:11:48;;;;;;;44.65;41.20;;;;;;;;;;4167282;28;20095;-63
2023/12/31 08:13:50;;;;;;;46.72;43.65;;;;;;;;;;4180827;28;20029;-63
2023/12/31 08:15:53;;;;;;;46.63;43.28;;;;;;;;;;4157873;28;20099;-63
2023/12/31 08:17:55;;;;;;;44.40;41.40;;;;;;;;;;4155063;28;20418;-64
2023/12/31 08:19:57;;;;;;;47.80;44.35;;;;;;;;;;4162664;28;20091;-63
2023/12/31 08:21:59;;;;;;;45.47;42.23;;;;;;;;;;4157968;28;20385;-63
2023/12/31 08:24:01;;;;;;;42.92;40.08;;;;;;;;;;4172384;28;20052;-63
2023/12/31 08:26:03;;;;;;;47.30;43.80;;;;;;;;;;4172442;28;20042;-63
2023/12/31 08:28:05;;;;;;;46.67;43.38;;;;;;;;;;4161645;28;20298;-63
2023/12/31 08:30:07;;;;;;;47.07;43.43;;;;;;;;;;4170343;28;20045;-63
2023/12/31 08:32:09;;;;;;;48.17;44.28;;;;;;;;;;4169764;28;20033;-63
2023/12/31 08:34:11;;;;;;;47.80;44.00;;;;;;;;;;4170451;28;20056;-63
2023/12/31 08:36:12;;;;;;;45.75;42.40;;;;;;;;;;4165048;28;20049;-63
2023/12/31 08:38:14;;;;;;;45.97;42.88;;;;;;;;;;4165184;28;20049;-63
2023/12/31 08:40:19;;;;;;;44.38;41.20;;;;;;;;;;4159985;28;20386;-62
2023/12/31 08:42:21;;;;;;;45.42;42.33;;;;;;;;;;4154920;28;20073;-63
2023/12/31 08:44:22;;;;;;;45.03;42.10;;;;;;;;;;4177136;28;20045;-63
2023/12/31 08:46:24;;;;;;;47.80;44.40;;;;;;;;;;4170540;28;20045;-63
2023/12/31 08:48:25;;;;;;;46.40;43.47;;;;;;;;;;4173930;28;20076;-63
2023/12/31 08:50:29;;;;;;;48.37;44.93;;;;;;;;;;4173101;28;20046;-63
2023/12/31 08:52:30;;;;;;;46.20;43.08;;;;;;;;;;4172347;28;20029;-63
2023/12/31 08:54:33;;;;;;;50.05;46.40;;;;;;;;;;4160868;28;20636;-64
2023/12/31 08:56:34;;;;;;;46.72;43.67;;;;;;;;;;4163698;28;20038;-64
2023/12/31 08:58:36;;;;;;;46.20;42.85;;;;;;;;;;4178294;28;20037;-63
2023/12/31 09:00:38;;;;;;;45.95;42.65;;;;;;;;;;4166441;28;20033;-63
2023/12/31 09:02:40;;;;;;;48.47;45.10;;;;;;;;;;4178662;28;20492;-63
2023/12/31 09:04:41;;;;;;;48.90;45.30;;;;;;;;;;4179707;28;20047;-64
2023/12/31 09:06:44;;;;;;;45.93;42.50;;;;;;;;;;4167431;28;20350;-63
2023/12/31 09:08:46;;;;;;;46.22;42.92;;;;;;;;;;4180858;28;20036;-62
2023/12/31 09:10:48;;;;;;;46.80;43.53;;;;;;;;;;4174117;28;20045;-62
2023/12/31 09:12:50;;;;;;;44.55;41.30;;;;;;;;;;4169443;28;20049;-63
2023/12/31 09:14:53;;;;;;;48.17;44.53;;;;;;;;;;4172964;28;20120;-62
2023/12/31 09:16:55;;;;;;;42.60;39.80;;;;;;;;;;4173509;28;20036;-62
2023/12/31 09:18:57;;;;;;;47.17;43.90;;;;;;;;;;4170250;28;20045;-63
2023/12/31 09:20:59;;;;;;;46.63;43.08;;;;;;;;;;4158204;28;20895;-62
2023/12/31 09:23:01;;;;;;;46.25;42.85;;;;;;;;;;4167735;28;20469;-62
2023/12/31 09:25:05;;;;;;;46.45;43.15;;;;;;;;;;4178741;28;20068;-62
2023/12/31 09:27:07;;;;;;;44.95;41.70;;;;;;;;;;4147777;28;20056;-62
2023/12/31 09:29:09;;;;;;;44.70;41.90;;;;;;;;;;4179145;28;20037;-62
2023/12/31 09:31:11;;;;;;;45.77;42.50;;;;;;;;;;4167078;28;20048;-62
2023/12/31 09:33:13;;;;;;;49.85;46.03;;;;;;;;;;4176684;28;20029;-62
2023/12/31 09:35:14;;;;;;;47.58;44.13;;;;;;;;;;4150217;28;20076;-62
2023/12/31 09:37:18;;;;;;;45.95;43.15;;;;;;;;;;4118702;28;20054;-62
2023/12/31 09:39:20;;;;;;;45.35;42.55;;;;;;;;;;4172421;28;20072;-62
2023/12/31 09:41:25;;;;;;;44.78;41.15;;;;;;;;;;4171162;28;20509;-62
2023/12/31 09:43:27;;;;;;;45.55;42.35;;;;;;;;;;4171035;28;20041;-62
2023/12/31 09:45:30;;;;;;;47.33;43.88;;;;;;;;;;4176572;28;20056;-62
2023/12/31 09:47:33;;;;;;;43.85;41.10;;;;;;;;;;4166627;28;20099;-62
2023/12/31 09:49:36;;;;;;;43.65;40.58;;;;;;;;;;4178738;28;20041;-62
2023/12/31 09:51:37;;;;;;;48.60;45.40;;;;;;;;;;4149750;28;20084;-62
2023/12/31 09:53:39;;;;;;;44.43;41.63;;;;;;;;;;4180468;28;20037;-62
2023/12/31 09:55:41;;;;;;;46.05;43.00;;;;;;;;;;4176816;28;20046;-62
2023/12/31 09:57:44;;;;;;;44.60;41.75;;;;;;;;;;4168711;28;20075;-62
2023/12/31 09:59:48;;;;;;;46.25;43.35;;;;;;;;;;4174219;28;20072;-62
2023/12/31 10:01:50;;;;;;;43.30;40.67;;;;;;;;;;4171459;28;20045;-62
2023/12/31 10:03:55;;;;;;;44.20;41.40;;;;;;;;;;4168078;28;20072;-62
2023/12/31 10:05:58;;;;;;;45.42;42.33;;;;;;;;;;4160378;28;20378;-62
2023/12/31 10:08:03;;;;;;;46.45;43.45;;;;;;;;;;4164270;28;20046;-62
2023/12/31 10:10:07;;;;;;;42.42;39.67;;;;;;;;;;4161222;28;20043;-61
2023/12/31 10:12:08;;;;;;;43.92;41.03;;;;;;;;;;4155663;28;20401;-63
2023/12/31 10:14:11;;;;;;;44.27;41.40;;;;;;;;;;4155054;28;20052;-62
2023/12/31 10:16:13;;;;;;;43.50;40.50;;;;;;;;;;4153602;28;20045;-61
2023/12/31 10:18:15;;;;;;;43.65;40.80;;;;;;;;;;4163966;28;20049;-63
2023/12/31 10:20:19;;;;;;;44.03;41.22;;;;;;;;;;4163600;28;20061;-63
2023/12/31 10:22:21;;;;;;;41.33;38.13;;;;;;;;;;4142526;28;20633;-63
2023/12/31 10:24:27;;;;;;;43.72;40.50;;;;;;;;;;4154896;28;20144;-63
2023/12/31 10:26:30;;;;;;;42.55;39.85;;;;;;;;;;4160504;28;20112;-64
2023/12/31 10:28:31;;;;;;;45.95;42.08;;;;;;;;;;4161307;28;20041;-63
2023/12/31 10:30:33;;;;;;;44.88;41.90;;;;;;;;;;4173133;28;20037;-63
2023/12/31 10:32:35;;;;;;;43.10;40.25;;;;;;;;;;4166589;28;20038;-63
2023/12/31 10:34:36;;;;;;;42.17;39.47;;;;;;;;;;4161155;28;20454;-64
2023/12/31 10:36:38;;;;;;;45.17;42.30;;;;;;;;;;4167657;28;20073;-63
2023/12/31 10:38:46;;;;;;;43.58;40.78;;;;;;;;;;4178397;28;20107;-64
2023/12/31 10:40:48;;;;;;;47.22;43.78;;;;;;;;;;4167426;28;20509;-63
2023/12/31 10:42:55;;;;;;;46.30;43.20;;;;;;;;;;4174715;28;20068;-63
2023/12/31 10:44:57;;;;;;;42.88;39.75;;;;;;;;;;4156432;28;20068;-64
2023/12/31 10:46:59;;;;;;;;;;;;;;;;;;4156506;28;20452;-63
2023/12/31 10:49:04;;;;;;;44.50;41.63;;;;;;;;;;4161692;28;19924;-63
2023/12/31 10:51:08;;;;;;;43.78;40.97;;;;;;;;;;4159967;28;20045;-63
2023/12/31 10:53:10;;;;;;;44.58;41.33;;;;;;;;;;4167729;28;20038;-63
2023/12/31 10:55:13;;;;;;;46.83;43.72;;;;;;;;;;4146733;28;20042;-63
2023/12/31 10:57:16;;;;;;;;;;;;;;;;;;4155054;28;20077;-63
2023/12/31 10:59:18;;;;;;;44.90;41.78;;;;;;;;;;4156926;28;20273;-63
2023/12/31 11:01:24;;;;;;;44.77;41.10;;;;;;;;;;4163875;28;20053;-63
2023/12/31 11:03:27;;;;;;;42.28;39.38;;;;;;;;;;4167872;28;20060;-63
2023/12/31 11:05:30;;;;;;;42.53;39.90;;;;;;;;;;4171310;28;20041;-63
2023/12/31 11:07:34;;;;;;;43.80;41.10;;;;;;;;;;4172966;28;20077;-63
2023/12/31 11:09:35;;;;;;;44.25;41.28;;;;;;;;;;4167950;28;20061;-63
2023/12/31 11:11:37;;;;;;;42.75;40.05;;;;;;;;;;4149906;28;20038;-63
2023/12/31 11:13:40;;;;;;;43.10;40.40;;;;;;;;;;4155746;28;20037;-62
2023/12/31 11:15:43;;;;;;;42.50;39.45;;;;;;;;;;4158877;28;20295;-63
2023/12/31 11:17:45;;;;;;;41.50;39.03;;;;;;;;;;4163956;28;20044;-63
2023/12/31 11:19:59;;;;;;;42.40;39.53;;;;;;;;;;4164430;28;20034;-63
2023/12/31 11:22:10;;;;;;;40.67;38.30;;;;;;;;;;4161504;28;21332;-63
2023/12/31 11:24:13;;;;;;;42.28;39.47;;;;;;;;;;4159986;28;20079;-63
2023/12/31 11:26:17;;;;;;;39.50;37.15;;;;;;;;;;4175546;28;20048;-63
2023/12/31 11:28:19;;;;;;;45.13;42.13;;;;;;;;;;4174423;28;20053;-63
2023/12/31 11:30:39;;;;;;;44.22;41.08;;;;;;;;;;4164739;28;20034;-63
2023/12/31 11:32:40;;;;;;;46.55;43.40;;;;;;;;;;4153556;28;20124;-63
2023/12/31 11:34:42;;;;;;;45.92;43.10;;;;;;;;;;4156402;28;20352;-63
2023/12/31 11:36:44;;;;;;;44.10;41.20;;;;;;;;;;4165727;28;20519;-63
2023/12/31 11:39:02;;;;;;;44.90;41.65;;;;;;;;;;4164765;28;20799;-63
2023/12/31 11:41:04;;;;;;;41.25;38.83;;;;;;;;;;4163664;28;20124;-63
2023/12/31 11:43:15;;;;;;;43.87;40.90;;;;;;;;;;4165214;28;20033;-63
2023/12/31 11:45:46;;;;;;;43.22;40.53;;;;;;;;;;4169068;28;20292;-64
2023/12/31 11:47:48;;;;;;;43.53;40.72;;;;;;;;;;4140519;28;20099;-63
2023/12/31 11:49:53;;;;;;;46.15;42.83;;;;;;;;;;4163084;28;20053;-63